Colcord, Oklahoma
Current Conditions -  °F | °C
As of 8:35 AM on Tuesday 21 Oct 2014 (Local Time) from KSLG Reporting Station
Overcast Overcast  
Wind Chill: 50°   Ceiling: 200
Heat Index: 50°   Visibility: 0mi
Dew Point: 45°   Wind: 3mph
Humidity: 82%   Direction: 100°E
Pressure: 30.15"   Gusts: NA
Location:  36.26°N, 94.69°W
Report Text: KSLG 211335Z AUTO 10003KT M1/4SM OVC002 10/07 A3015 RMK AO1
Loading
Personal Weather Stations






























Interactive Weather Map
Tropical Storm Tracking
New forecast layout! Learn more

10-Day Weather Forecast

Advertisements
Track Severe Weather on mobile